createdAt,value
2022-07-26T00:00:22.691Z,97871.41
2022-07-26T00:02:56.627Z,97873.88
2022-07-26T00:05:27.908Z,97879.13
2022-07-26T00:08:12.617Z,97880.75
2022-07-26T00:10:56.823Z,97879.53
2022-07-26T00:13:30.310Z,97873.91
2022-07-26T00:16:09.057Z,97878.72
2022-07-26T00:18:39.156Z,97889.59
2022-07-26T00:21:09.848Z,97895.66
2022-07-26T00:23:43.429Z,97882.78
2022-07-26T00:26:14.139Z,97898.88
2022-07-26T00:28:44.931Z,97898.88
2022-07-26T00:31:22.092Z,97900.88
2022-07-26T00:33:57.320Z,97891.63
2022-07-26T00:36:32.857Z,97889.59
2022-07-26T00:41:48.663Z,97875.09
2022-07-26T00:44:34.345Z,97876.34
2022-07-26T00:47:11.602Z,97865.88
2022-07-26T00:49:42.161Z,97848.94
2022-07-26T00:52:12.566Z,97846.50
2022-07-26T00:54:44.476Z,97819.53
2022-07-26T00:57:15.860Z,97814.28
2022-07-26T00:59:47.110Z,97811.00
2022-07-26T01:02:23.990Z,97801.28
2022-07-26T01:04:55.501Z,97808.94
2022-07-26T01:07:27.626Z,97805.38
2022-07-26T01:09:56.139Z,97793.25
2022-07-26T01:12:25.119Z,97803.38
2022-07-26T01:14:56.319Z,97793.31
2022-07-26T01:17:28.145Z,97774.34
2022-07-26T01:19:57.698Z,97788.53
2022-07-26T01:22:35.446Z,97801.41
2022-07-26T01:25:13.647Z,97801.41
2022-07-26T01:27:50.100Z,97801.81
2022-07-26T01:30:24.028Z,97803.06
2022-07-26T01:32:54.839Z,97811.13
2022-07-26T01:35:29.160Z,97824.81
2022-07-26T01:38:04.013Z,97819.56
2022-07-26T01:40:48.652Z,97819.53
2022-07-26T01:43:22.374Z,97801.44
2022-07-26T01:46:00.975Z,97804.28
2022-07-26T01:48:31.859Z,97759.97
2022-07-26T01:53:51.165Z,97799.44
2022-07-26T01:56:26.672Z,97788.16
2022-07-26T01:59:02.069Z,97786.19
2022-07-26T02:01:43.128Z,97779.69
2022-07-26T02:04:39.409Z,97774.88
2022-07-26T02:07:17.018Z,97756.72
2022-07-26T02:09:54.116Z,97772.44
2022-07-26T02:12:23.212Z,97785.31
2022-07-26T02:14:57.620Z,97780.50
2022-07-26T02:17:28.180Z,97784.53
2022-07-26T02:20:07.846Z,97785.31
2022-07-26T02:22:42.804Z,97786.47
2022-07-26T02:25:16.971Z,97796.09
2022-07-26T02:27:48.177Z,97796.50
2022-07-26T02:30:22.179Z,97808.16
2022-07-26T02:35:53.578Z,97798.56
2022-07-26T02:38:25.925Z,97787.72
2022-07-26T02:41:03.838Z,97802.19
2022-07-26T02:43:38.426Z,97799.78
2022-07-26T02:46:15.723Z,97796.97
2022-07-26T02:48:48.494Z,97797.78
2022-07-26T02:51:25.427Z,97788.91
2022-07-26T02:53:55.892Z,97786.47
2022-07-26T02:56:27.274Z,97784.50
2022-07-26T02:58:58.986Z,97783.31
2022-07-26T03:01:31.078Z,97775.63
2022-07-26T03:04:14.070Z,97761.50
2022-07-26T03:06:48.448Z,97761.91
2022-07-26T03:09:28.389Z,97775.19
2022-07-26T03:14:46.157Z,97769.63
2022-07-26T03:17:27.130Z,97778.38
2022-07-26T03:20:01.065Z,97785.59
2022-07-26T03:22:38.395Z,97785.63
2022-07-26T03:25:10.535Z,97781.19
2022-07-26T03:27:44.060Z,97794.06
2022-07-26T03:30:24.716Z,97797.13
2022-07-26T03:33:12.555Z,97822.72
2022-07-26T03:35:43.240Z,97837.94
2022-07-26T03:38:15.151Z,97843.56
2022-07-26T03:40:48.619Z,97848.78
2022-07-26T03:43:23.371Z,97853.97
2022-07-26T03:46:00.351Z,97854.00
2022-07-26T03:48:31.929Z,97857.88
2022-07-26T03:51:18.763Z,97846.97
2022-07-26T03:53:47.332Z,97857.41
2022-07-26T03:56:38.707Z,97871.28
2022-07-26T03:59:10.800Z,97857.75
2022-07-26T04:01:52.156Z,97835.53
2022-07-26T04:04:30.559Z,97822.91
2022-07-26T04:07:03.875Z,97841.22
2022-07-26T04:09:35.003Z,97834.22
2022-07-26T04:12:09.353Z,97832.22
2022-07-26T04:14:42.795Z,97831.84
2022-07-26T04:17:13.318Z,97822.28
2022-07-26T04:19:48.629Z,97834.34
2022-07-26T04:22:25.326Z,97839.94
2022-07-26T04:27:27.041Z,97851.66
2022-07-26T04:30:15.477Z,97851.56
2022-07-26T04:32:48.140Z,97861.28
2022-07-26T04:35:18.045Z,97864.09
2022-07-26T04:37:52.527Z,97854.06
2022-07-26T04:40:24.177Z,97852.03
2022-07-26T04:42:59.290Z,97857.63
2022-07-26T04:45:31.411Z,97852.03
2022-07-26T04:48:07.431Z,97835.16
2022-07-26T04:50:55.615Z,97828.28
2022-07-26T04:53:31.395Z,97856.09
2022-07-26T04:56:06.155Z,97853.34
2022-07-26T04:58:39.808Z,97852.16
2022-07-26T05:01:16.777Z,97855.38
2022-07-26T05:03:47.113Z,97860.63
2022-07-26T05:06:32.000Z,97844.53
2022-07-26T05:09:01.453Z,97863.47
2022-07-26T05:11:45.580Z,97867.84
2022-07-26T05:14:25.158Z,97849.75
2022-07-26T05:17:00.335Z,97860.22
2022-07-26T05:19:47.481Z,97863.44
2022-07-26T05:22:20.674Z,97852.94
2022-07-26T05:24:58.307Z,97866.59
2022-07-26T05:27:32.099Z,97869.81
2022-07-26T05:30:03.455Z,97866.22
2022-07-26T05:35:17.323Z,97875.47
2022-07-26T05:37:49.337Z,97875.09
2022-07-26T05:40:21.321Z,97875.09
2022-07-26T05:42:58.482Z,97883.53
2022-07-26T05:45:28.572Z,97875.47
2022-07-26T05:47:59.945Z,97896.81
2022-07-26T05:50:31.874Z,97892.34
2022-07-26T05:53:04.298Z,97880.25
2022-07-26T05:55:32.531Z,97887.03
2022-07-26T05:58:03.625Z,97894.69
2022-07-26T06:00:34.014Z,97882.59
2022-07-26T06:03:25.029Z,97884.97
2022-07-26T06:06:15.231Z,97878.41
2022-07-26T06:08:48.877Z,97874.75
2022-07-26T06:11:33.166Z,97887.16
2022-07-26T06:14:12.624Z,97881.31
2022-07-26T06:16:44.638Z,97870.34
2022-07-26T06:19:14.483Z,97882.34
2022-07-26T06:21:50.309Z,97877.06
2022-07-26T06:24:23.858Z,97870.06
2022-07-26T06:27:04.573Z,97868.22
2022-07-26T06:29:39.342Z,97876.53
2022-07-26T06:32:10.276Z,97877.63
2022-07-26T06:34:43.557Z,97892.88
2022-07-26T06:37:25.984Z,97884.19
2022-07-26T06:39:57.039Z,97876.50
2022-07-26T06:42:26.284Z,97897.78
2022-07-26T06:44:57.501Z,97896.25
2022-07-26T06:47:32.011Z,97900.75
2022-07-26T06:50:01.384Z,97888.84
2022-07-26T06:52:33.053Z,97889.16
2022-07-26T06:55:12.672Z,97901.06
2022-07-26T06:57:50.413Z,97905.63
2022-07-26T07:00:25.610Z,97912.25
2022-07-26T07:02:59.517Z,97917.94
2022-07-26T07:05:33.290Z,97925.25
2022-07-26T07:08:10.777Z,97931.03
2022-07-26T07:10:51.044Z,97925.84
2022-07-26T07:13:27.701Z,97916.28
2022-07-26T07:16:02.219Z,97913.97
2022-07-26T07:18:42.441Z,97924.88
2022-07-26T07:21:25.878Z,97940.72
2022-07-26T07:24:03.374Z,97937.22
2022-07-26T07:26:33.927Z,97946.47
2022-07-26T07:29:15.045Z,97961.47
2022-07-26T07:31:50.807Z,97962.44
2022-07-26T07:34:24.106Z,97971.75
2022-07-26T07:39:48.650Z,97975.81
2022-07-26T07:42:25.460Z,97979.47
2022-07-26T07:44:56.418Z,97990.28
2022-07-26T07:47:29.079Z,97994.72
2022-07-26T07:50:00.725Z,98014.03
2022-07-26T07:52:34.594Z,98004.34
2022-07-26T07:55:36.093Z,98000.75
2022-07-26T07:57:59.426Z,98019.69
2022-07-26T08:00:32.620Z,98018.84
2022-07-26T08:03:02.104Z,98024.88
2022-07-26T08:05:32.468Z,98058.25
2022-07-26T08:08:05.357Z,98074.34
2022-07-26T08:10:55.961Z,98072.66
2022-07-26T08:13:28.122Z,98073.72
2022-07-26T08:15:59.609Z,98074.44
2022-07-26T08:18:45.255Z,98059.91
2022-07-26T08:21:29.493Z,98024.94
2022-07-26T08:24:04.236Z,98078.19
2022-07-26T08:26:37.805Z,98067.97
2022-07-26T08:29:08.309Z,98082.44
2022-07-26T08:31:48.575Z,98098.53
2022-07-26T08:34:34.432Z,98118.38
2022-07-26T08:37:17.393Z,98111.97
2022-07-26T08:39:56.842Z,98129.22
2022-07-26T08:42:29.408Z,98129.66
2022-07-26T08:44:58.403Z,98115.56
2022-07-26T08:47:37.741Z,98118.75
2022-07-26T08:50:10.989Z,98109.00
2022-07-26T08:52:42.901Z,98120.66
2022-07-26T08:55:20.086Z,98155.50
2022-07-26T08:58:03.343Z,98179.22
2022-07-26T09:00:40.497Z,98183.91
2022-07-26T09:03:28.465Z,98178.72
2022-07-26T09:06:02.999Z,98172.19
2022-07-26T09:08:43.723Z,98176.25
2022-07-26T09:11:44.796Z,98172.53
2022-07-26T09:14:15.025Z,98182.06
2022-07-26T09:17:02.213Z,98200.97
2022-07-26T09:19:39.637Z,98220.78
2022-07-26T09:22:17.357Z,98226.94
2022-07-26T09:24:50.873Z,98215.03
2022-07-26T09:27:28.332Z,98240.50
2022-07-26T09:30:10.073Z,98225.28
2022-07-26T09:32:58.946Z,98227.44
2022-07-26T09:35:50.442Z,98234.88
2022-07-26T09:38:20.493Z,98227.78
2022-07-26T09:40:51.832Z,98229.03
2022-07-26T09:43:23.848Z,98230.06
2022-07-26T09:46:14.031Z,98228.50
2022-07-26T09:49:10.497Z,98235.66
2022-07-26T09:51:47.937Z,98243.72
2022-07-26T09:54:40.522Z,98242.56
2022-07-26T09:57:17.720Z,98227.03
2022-07-26T09:59:47.596Z,98203.81
2022-07-26T10:02:23.828Z,98189.25
2022-07-26T10:05:11.999Z,98194.69
2022-07-26T10:07:55.449Z,98196.13
2022-07-26T10:10:50.170Z,98188.25
2022-07-26T10:13:33.346Z,98171.97
2022-07-26T10:16:06.012Z,98159.38
2022-07-26T10:18:45.608Z,98155.16
2022-07-26T10:21:34.435Z,98176.72
2022-07-26T10:24:12.228Z,98186.25
2022-07-26T10:26:45.718Z,98205.31
2022-07-26T10:29:34.382Z,98217.47
2022-07-26T10:32:19.088Z,98226.06
2022-07-26T10:34:50.824Z,98234.88
2022-07-26T10:37:28.370Z,98245.88
2022-07-26T10:40:23.797Z,98241.09
2022-07-26T10:46:26.783Z,98232.72
2022-07-26T10:49:12.999Z,98231.59
2022-07-26T10:51:42.439Z,98229.50
2022-07-26T10:54:22.125Z,98227.38
2022-07-26T10:56:51.830Z,98223.47
2022-07-26T10:59:55.443Z,98225.31
2022-07-26T11:02:28.959Z,98230.63
2022-07-26T11:05:04.864Z,98223.78
2022-07-26T11:07:41.096Z,98220.97
2022-07-26T11:10:14.222Z,98214.16
2022-07-26T11:12:42.276Z,98210.47
2022-07-26T11:15:26.573Z,98214.50
2022-07-26T11:18:20.246Z,98221.38
2022-07-26T11:20:56.963Z,98227.81
2022-07-26T11:23:26.715Z,98234.28
2022-07-26T11:26:26.080Z,98234.75
2022-07-26T11:29:03.975Z,98227.00
2022-07-26T11:31:59.881Z,98225.97
2022-07-26T11:34:37.984Z,98216.28
2022-07-26T11:37:09.868Z,98209.03
2022-07-26T11:39:55.461Z,98201.75
2022-07-26T11:42:29.161Z,98201.06
2022-07-26T11:45:08.338Z,98203.50
2022-07-26T11:47:39.161Z,98209.22
2022-07-26T11:50:22.970Z,98212.31
2022-07-26T11:53:01.700Z,98207.53
2022-07-26T11:58:28.079Z,98202.66
2022-07-26T12:01:00.627Z,98157.94
2022-07-26T12:03:33.361Z,98198.75
2022-07-26T12:06:19.916Z,98203.13
2022-07-26T12:09:03.395Z,98216.53
2022-07-26T12:11:51.304Z,98205.66
2022-07-26T12:14:31.994Z,98212.09
2022-07-26T12:17:20.120Z,98216.09
2022-07-26T12:19:50.916Z,98210.09
2022-07-26T12:22:27.118Z,98197.09
2022-07-26T12:25:08.331Z,98199.91
2022-07-26T12:27:59.164Z,98185.38
2022-07-26T12:30:37.084Z,98172.78
2022-07-26T12:33:08.181Z,98184.25
2022-07-26T12:35:52.110Z,98171.66
2022-07-26T12:38:40.109Z,98176.31
2022-07-26T12:43:56.814Z,98188.16
2022-07-26T12:46:28.020Z,98180.59
2022-07-26T12:49:04.736Z,98175.16
2022-07-26T12:51:41.999Z,98178.06
2022-07-26T12:54:15.870Z,98175.22
2022-07-26T12:56:54.985Z,98171.09
2022-07-26T12:59:44.795Z,98170.94
2022-07-26T13:02:16.922Z,98172.44
2022-07-26T13:04:50.376Z,98174.22
2022-07-26T13:07:24.043Z,98169.34
2022-07-26T13:10:22.586Z,98158.53
2022-07-26T13:12:50.415Z,98153.88
2022-07-26T13:15:38.010Z,98155.22
2022-07-26T13:18:13.363Z,98159.88
2022-07-26T13:20:49.488Z,98153.22
2022-07-26T13:23:26.679Z,98147.25
2022-07-26T13:26:01.413Z,98147.56
2022-07-26T13:28:45.230Z,98150.38
2022-07-26T13:31:25.490Z,98145.22
2022-07-26T13:34:03.354Z,98152.44
2022-07-26T13:36:35.983Z,98146.31
2022-07-26T13:39:10.113Z,98152.78
2022-07-26T13:41:44.488Z,98153.66
2022-07-26T13:44:19.442Z,98144.91
2022-07-26T13:46:58.581Z,98141.81
2022-07-26T13:49:33.086Z,98144.78
2022-07-26T13:52:09.735Z,98136.84
2022-07-26T13:54:44.800Z,98126.50
2022-07-26T13:57:14.638Z,98135.66
2022-07-26T13:59:53.308Z,98139.13
2022-07-26T14:02:32.539Z,98134.56
2022-07-26T14:05:03.767Z,98132.84
2022-07-26T14:07:36.409Z,98132.53
2022-07-26T14:10:08.091Z,98135.78
2022-07-26T14:12:43.087Z,98130.53
2022-07-26T14:15:21.985Z,98124.75
2022-07-26T14:18:09.994Z,98136.72
2022-07-26T14:20:40.701Z,98125.56
2022-07-26T14:23:17.757Z,98125.22
2022-07-26T14:25:52.972Z,98117.00
2022-07-26T14:28:24.380Z,98102.09
2022-07-26T14:31:03.337Z,98120.34
2022-07-26T14:33:46.515Z,98123.03
2022-07-26T14:36:15.682Z,98126.88
2022-07-26T14:38:48.456Z,98132.13
2022-07-26T14:41:16.681Z,98132.84
2022-07-26T14:43:57.000Z,98118.63
2022-07-26T14:46:37.740Z,98112.63
2022-07-26T14:49:16.425Z,98106.44
2022-07-26T14:51:44.881Z,98107.44
2022-07-26T14:54:28.756Z,98109.63
2022-07-26T14:57:03.659Z,98106.94
2022-07-26T14:59:38.025Z,98093.63
2022-07-26T15:02:08.614Z,98109.34
2022-07-26T15:04:43.646Z,98108.69
2022-07-26T15:07:17.894Z,98109.75
2022-07-26T15:09:54.011Z,98114.53
2022-07-26T15:12:33.803Z,98101.84
2022-07-26T15:15:07.778Z,98106.31
2022-07-26T15:17:44.690Z,98115.03
2022-07-26T15:20:18.902Z,98103.75
2022-07-26T15:22:53.392Z,98100.03
2022-07-26T15:25:25.411Z,98106.09
2022-07-26T15:27:54.877Z,98107.72
2022-07-26T15:30:28.682Z,98095.53
2022-07-26T15:33:10.036Z,98088.28
2022-07-26T15:35:44.081Z,98090.06
2022-07-26T15:38:18.264Z,98079.56
2022-07-26T15:43:48.498Z,98065.91
2022-07-26T15:46:20.336Z,98068.31
2022-07-26T15:48:51.487Z,98071.34
2022-07-26T15:51:26.817Z,98060.81
2022-07-26T15:53:57.623Z,98079.50
2022-07-26T15:56:36.974Z,98079.41
2022-07-26T15:59:14.715Z,98082.56
2022-07-26T16:01:45.822Z,98082.34
2022-07-26T16:04:16.575Z,98093.75
2022-07-26T16:06:47.984Z,98090.38
2022-07-26T16:09:28.075Z,98088.13
2022-07-26T16:12:04.102Z,98090.69
2022-07-26T16:14:44.387Z,98095.53
2022-07-26T16:17:18.409Z,98094.88
2022-07-26T16:19:51.452Z,98099.50
2022-07-26T16:22:28.061Z,98111.34
2022-07-26T16:24:58.090Z,98100.59
2022-07-26T16:27:32.303Z,98082.69
2022-07-26T16:30:08.858Z,98098.44
2022-07-26T16:32:46.688Z,98103.84
2022-07-26T16:35:19.610Z,98107.16
2022-07-26T16:37:57.197Z,98112.28
2022-07-26T16:40:32.177Z,98113.06
2022-07-26T16:43:12.164Z,98104.81
2022-07-26T16:45:43.283Z,98118.63
2022-07-26T16:48:17.038Z,98116.06
2022-07-26T16:50:53.682Z,98116.84
2022-07-26T16:53:28.174Z,98123.75
2022-07-26T16:55:59.989Z,98125.22
2022-07-26T16:58:38.936Z,98125.53
2022-07-26T17:01:10.045Z,98124.47
2022-07-26T17:03:56.945Z,98126.06
2022-07-26T17:06:26.844Z,98121.78
2022-07-26T17:08:55.819Z,98123.53
2022-07-26T17:11:27.667Z,98099.53
2022-07-26T17:14:02.940Z,98119.94
2022-07-26T17:16:37.724Z,98106.81
2022-07-26T17:19:08.327Z,98124.88
2022-07-26T17:21:40.129Z,98110.34
2022-07-26T17:24:27.188Z,98120.13
2022-07-26T17:27:01.381Z,98121.28
2022-07-26T17:29:31.096Z,98117.00
2022-07-26T17:32:00.608Z,98125.84
2022-07-26T17:34:29.626Z,98124.38
2022-07-26T17:37:05.934Z,98119.84
2022-07-26T17:39:52.221Z,98111.53
2022-07-26T17:42:24.398Z,98119.78
2022-07-26T17:44:55.165Z,98122.25
2022-07-26T17:47:30.720Z,98120.22
2022-07-26T17:53:00.657Z,98136.66
2022-07-26T17:55:38.432Z,98144.97
2022-07-26T17:58:12.250Z,98151.06
2022-07-26T18:00:45.555Z,98148.16
2022-07-26T18:03:16.025Z,98152.31
2022-07-26T18:05:57.060Z,98155.63
2022-07-26T18:08:35.627Z,98139.91
2022-07-26T18:11:05.365Z,98152.00
2022-07-26T18:13:38.623Z,98155.63
2022-07-26T18:16:12.809Z,98150.41
2022-07-26T18:21:35.559Z,98166.09
2022-07-26T18:24:17.004Z,98166.91
2022-07-26T18:26:51.666Z,98168.91
2022-07-26T18:29:20.911Z,98178.53
2022-07-26T18:31:51.897Z,98184.97
2022-07-26T18:34:26.816Z,98184.56
2022-07-26T18:37:00.562Z,98169.19
2022-07-26T18:39:37.475Z,98180.31
2022-07-26T18:42:18.263Z,98168.22
2022-07-26T18:44:58.701Z,98175.09
2022-07-26T18:47:39.022Z,98177.56
2022-07-26T18:50:17.165Z,98178.38
2022-07-26T18:53:05.477Z,98178.88
2022-07-26T18:55:43.465Z,98184.34
2022-07-26T18:58:33.268Z,98196.78
2022-07-26T19:01:12.887Z,98194.91
2022-07-26T19:03:43.526Z,98191.41
2022-07-26T19:06:20.795Z,98193.88
2022-07-26T19:08:57.626Z,98195.16
2022-07-26T19:11:36.336Z,98175.00
2022-07-26T19:14:17.088Z,98192.56
2022-07-26T19:16:53.039Z,98189.19
2022-07-26T19:19:23.619Z,98180.31
2022-07-26T19:21:56.033Z,98189.06
2022-07-26T19:24:28.584Z,98194.47
2022-07-26T19:27:10.656Z,98203.69
2022-07-26T19:29:44.759Z,98195.63
2022-07-26T19:32:28.023Z,98216.09
2022-07-26T19:35:03.061Z,98215.78
2022-07-26T19:37:33.272Z,98218.59
2022-07-26T19:40:06.770Z,98221.34
2022-07-26T19:42:40.821Z,98219.25
2022-07-26T19:45:19.769Z,98235.13
2022-07-26T19:47:53.007Z,98243.72
2022-07-26T19:50:29.106Z,98248.03
2022-07-26T19:53:11.876Z,98255.06
2022-07-26T19:55:42.982Z,98254.59
2022-07-26T19:58:22.319Z,98255.47
2022-07-26T20:01:02.289Z,98249.13
2022-07-26T20:03:40.349Z,98247.66
2022-07-26T20:06:15.262Z,98249.53
2022-07-26T20:08:45.266Z,98238.41
2022-07-26T20:11:20.545Z,98236.22
2022-07-26T20:13:51.224Z,98243.34
2022-07-26T20:16:36.323Z,98236.47
2022-07-26T20:19:19.866Z,98239.81
2022-07-26T20:21:52.234Z,98233.13
2022-07-26T20:24:34.369Z,98222.06
2022-07-26T20:27:19.677Z,98235.03
2022-07-26T20:29:49.754Z,98239.53
2022-07-26T20:32:26.923Z,98248.00
2022-07-26T20:35:09.942Z,98244.91
2022-07-26T20:37:41.146Z,98220.59
2022-07-26T20:40:15.610Z,98256.56
2022-07-26T20:42:50.086Z,98252.53
2022-07-26T20:45:31.142Z,98267.53
2022-07-26T20:48:04.764Z,98270.47
2022-07-26T20:50:47.464Z,98272.19
2022-07-26T20:53:21.662Z,98284.53
2022-07-26T20:55:58.053Z,98287.25
2022-07-26T20:58:32.180Z,98292.59
2022-07-26T21:01:13.509Z,98295.06
2022-07-26T21:03:43.900Z,98276.53
2022-07-26T21:06:23.634Z,98272.50
2022-07-26T21:09:09.787Z,98292.97
2022-07-26T21:11:47.635Z,98268.53
2022-07-26T21:14:21.641Z,98289.94
2022-07-26T21:16:58.599Z,98276.56
2022-07-26T21:19:29.782Z,98289.94
2022-07-26T21:22:00.707Z,98282.19
2022-07-26T21:24:28.979Z,98270.88
2022-07-26T21:27:00.183Z,98298.06
2022-07-26T21:29:30.089Z,98301.25
2022-07-26T21:32:01.786Z,98311.91
2022-07-26T21:34:40.298Z,98313.44
2022-07-26T21:37:22.149Z,98296.94
2022-07-26T21:39:52.565Z,98314.94
2022-07-26T21:42:27.050Z,98326.34
2022-07-26T21:45:03.706Z,98324.13
2022-07-26T21:47:34.377Z,98330.84
2022-07-26T21:50:19.201Z,98321.16
2022-07-26T21:52:53.154Z,98311.78
2022-07-26T21:55:30.980Z,98317.41
2022-07-26T21:58:05.764Z,98316.06
2022-07-26T22:00:39.794Z,98318.69
2022-07-26T22:03:10.765Z,98335.59
2022-07-26T22:05:47.317Z,98325.41
2022-07-26T22:08:24.596Z,98324.50
2022-07-26T22:11:00.816Z,98320.94
2022-07-26T22:13:35.437Z,98312.03
2022-07-26T22:16:09.781Z,98277.47
2022-07-26T22:19:04.095Z,98327.38
2022-07-26T22:21:39.976Z,98335.63
2022-07-26T22:24:11.209Z,98326.84
2022-07-26T22:26:46.092Z,98335.50
2022-07-26T22:29:17.723Z,98321.94
2022-07-26T22:31:58.767Z,98323.44
2022-07-26T22:34:29.437Z,98318.75
2022-07-26T22:37:08.714Z,98323.84
2022-07-26T22:39:43.152Z,98261.00
2022-07-26T22:42:16.093Z,98305.31
2022-07-26T22:44:47.667Z,98288.59
2022-07-26T22:47:24.359Z,98311.81
2022-07-26T22:49:56.163Z,98307.19
2022-07-26T22:52:27.271Z,98289.72
2022-07-26T22:55:06.340Z,98304.88
2022-07-26T22:57:43.536Z,98301.88
2022-07-26T23:00:21.454Z,98310.81
2022-07-26T23:02:55.374Z,98313.63
2022-07-26T23:05:39.864Z,98314.38
2022-07-26T23:11:14.685Z,98312.78
2022-07-26T23:13:42.458Z,98317.94
2022-07-26T23:16:42.804Z,98316.41
2022-07-26T23:19:17.890Z,98296.41
2022-07-26T23:22:01.963Z,98307.34
2022-07-26T23:24:38.715Z,98303.69
2022-07-26T23:27:24.758Z,98296.88
2022-07-26T23:29:55.027Z,98306.84
2022-07-26T23:32:26.761Z,98304.25
2022-07-26T23:35:02.667Z,98299.72
2022-07-26T23:37:39.072Z,98315.06
2022-07-26T23:40:21.625Z,98318.63
2022-07-26T23:42:58.194Z,98317.78
2022-07-26T23:45:29.318Z,98320.59
2022-07-26T23:47:59.425Z,98317.09
2022-07-26T23:50:34.431Z,98317.56
2022-07-26T23:53:12.429Z,98308.16
2022-07-26T23:55:49.150Z,98299.00
2022-07-26T23:58:20.932Z,98312.16
